sensor_id;sensor_type;location;lat;lon;timestamp;P1;durP1;ratioP1;P2;durP2;ratioP2
4634;SDS011;2330;48.158;11.816;2023-05-10T00:01:27;1.07;;;0.97;;
4634;SDS011;2330;48.158;11.816;2023-05-10T00:03:53;1.53;;;1.10;;
4634;SDS011;2330;48.158;11.816;2023-05-10T00:06:20;1.53;;;1.10;;
4634;SDS011;2330;48.158;11.816;2023-05-10T00:08:47;1.10;;;1.00;;
4634;SDS011;2330;48.158;11.816;2023-05-10T00:11:14;0.97;;;0.80;;
4634;SDS011;2330;48.158;11.816;2023-05-10T00:13:41;0.90;;;0.90;;
4634;SDS011;2330;48.158;11.816;2023-05-10T00:16:07;1.00;;;0.90;;
4634;SDS011;2330;48.158;11.816;2023-05-10T00:18:34;1.67;;;1.10;;
4634;SDS011;2330;48.158;11.816;2023-05-10T00:21:01;2.40;;;0.80;;
4634;SDS011;2330;48.158;11.816;2023-05-10T00:23:27;1.10;;;1.00;;
4634;SDS011;2330;48.158;11.816;2023-05-10T00:25:54;1.20;;;1.10;;
4634;SDS011;2330;48.158;11.816;2023-05-10T00:28:21;0.90;;;0.90;;
4634;SDS011;2330;48.158;11.816;2023-05-10T00:30:47;2.37;;;1.17;;
4634;SDS011;2330;48.158;11.816;2023-05-10T00:33:14;2.30;;;0.80;;
4634;SDS011;2330;48.158;11.816;2023-05-10T00:35:41;1.73;;;0.90;;
4634;SDS011;2330;48.158;11.816;2023-05-10T00:38:08;2.50;;;1.10;;
4634;SDS011;2330;48.158;11.816;2023-05-10T00:40:35;3.33;;;0.80;;
4634;SDS011;2330;48.158;11.816;2023-05-10T00:43:03;2.40;;;1.00;;
4634;SDS011;2330;48.158;11.816;2023-05-10T00:45:31;1.90;;;0.93;;
4634;SDS011;2330;48.158;11.816;2023-05-10T00:48:00;1.20;;;1.10;;
4634;SDS011;2330;48.158;11.816;2023-05-10T00:50:28;1.00;;;0.90;;
4634;SDS011;2330;48.158;11.816;2023-05-10T00:52:57;1.47;;;0.90;;
4634;SDS011;2330;48.158;11.816;2023-05-10T00:55:25;0.80;;;0.70;;
4634;SDS011;2330;48.158;11.816;2023-05-10T00:57:52;0.87;;;0.87;;
4634;SDS011;2330;48.158;11.816;2023-05-10T01:00:19;0.93;;;0.80;;
4634;SDS011;2330;48.158;11.816;2023-05-10T01:02:46;0.67;;;0.67;;
4634;SDS011;2330;48.158;11.816;2023-05-10T01:05:13;2.73;;;0.70;;
4634;SDS011;2330;48.158;11.816;2023-05-10T01:07:40;1.27;;;0.90;;
4634;SDS011;2330;48.158;11.816;2023-05-10T01:10:07;1.37;;;0.93;;
4634;SDS011;2330;48.158;11.816;2023-05-10T01:12:35;0.83;;;0.83;;
4634;SDS011;2330;48.158;11.816;2023-05-10T01:15:06;0.80;;;0.70;;
4634;SDS011;2330;48.158;11.816;2023-05-10T01:17:35;0.90;;;0.80;;
4634;SDS011;2330;48.158;11.816;2023-05-10T01:20:05;1.40;;;0.70;;
4634;SDS011;2330;48.158;11.816;2023-05-10T01:25:34;1.07;;;0.97;;
4634;SDS011;2330;48.158;11.816;2023-05-10T01:28:39;0.77;;;0.77;;
4634;SDS011;2330;48.158;11.816;2023-05-10T01:34:55;1.83;;;0.70;;
4634;SDS011;2330;48.158;11.816;2023-05-10T01:38:14;1.53;;;0.80;;
4634;SDS011;2330;48.158;11.816;2023-05-10T01:43:11;0.80;;;0.80;;
4634;SDS011;2330;48.158;11.816;2023-05-10T01:45:50;0.70;;;0.70;;
4634;SDS011;2330;48.158;11.816;2023-05-10T01:48:30;1.00;;;0.60;;
4634;SDS011;2330;48.158;11.816;2023-05-10T01:50:58;1.10;;;0.70;;
4634;SDS011;2330;48.158;11.816;2023-05-10T01:53:25;0.90;;;0.80;;
4634;SDS011;2330;48.158;11.816;2023-05-10T01:55:53;1.70;;;1.00;;
4634;SDS011;2330;48.158;11.816;2023-05-10T01:58:27;1.53;;;0.80;;
4634;SDS011;2330;48.158;11.816;2023-05-10T02:00:56;1.33;;;0.80;;
4634;SDS011;2330;48.158;11.816;2023-05-10T02:03:26;0.80;;;0.80;;
4634;SDS011;2330;48.158;11.816;2023-05-10T02:05:56;10.13;;;0.90;;
4634;SDS011;2330;48.158;11.816;2023-05-10T02:08:25;1.67;;;0.60;;
4634;SDS011;2330;48.158;11.816;2023-05-10T02:10:53;0.80;;;0.60;;
4634;SDS011;2330;48.158;11.816;2023-05-10T02:13:21;0.70;;;0.70;;
4634;SDS011;2330;48.158;11.816;2023-05-10T02:15:50;1.20;;;0.80;;
4634;SDS011;2330;48.158;11.816;2023-05-10T02:18:18;0.70;;;0.70;;
4634;SDS011;2330;48.158;11.816;2023-05-10T02:20:46;1.67;;;1.00;;
4634;SDS011;2330;48.158;11.816;2023-05-10T02:23:14;1.27;;;0.60;;
4634;SDS011;2330;48.158;11.816;2023-05-10T02:25:43;1.43;;;0.70;;
4634;SDS011;2330;48.158;11.816;2023-05-10T02:28:11;1.47;;;0.70;;
4634;SDS011;2330;48.158;11.816;2023-05-10T02:30:39;1.33;;;0.80;;
4634;SDS011;2330;48.158;11.816;2023-05-10T02:33:06;4.17;;;0.73;;
4634;SDS011;2330;48.158;11.816;2023-05-10T02:35:34;3.07;;;0.90;;
4634;SDS011;2330;48.158;11.816;2023-05-10T02:38:02;1.20;;;0.60;;
4634;SDS011;2330;48.158;11.816;2023-05-10T02:40:30;1.23;;;0.63;;
4634;SDS011;2330;48.158;11.816;2023-05-10T02:42:58;2.40;;;0.70;;
4634;SDS011;2330;48.158;11.816;2023-05-10T02:45:27;1.63;;;0.60;;
4634;SDS011;2330;48.158;11.816;2023-05-10T02:47:57;0.80;;;0.67;;
4634;SDS011;2330;48.158;11.816;2023-05-10T02:50:26;1.20;;;0.60;;
4634;SDS011;2330;48.158;11.816;2023-05-10T02:52:56;2.87;;;0.83;;
4634;SDS011;2330;48.158;11.816;2023-05-10T02:55:30;1.83;;;0.97;;
4634;SDS011;2330;48.158;11.816;2023-05-10T02:58:00;1.80;;;0.50;;
4634;SDS011;2330;48.158;11.816;2023-05-10T03:00:28;1.87;;;0.60;;
4634;SDS011;2330;48.158;11.816;2023-05-10T03:02:54;1.00;;;0.60;;
4634;SDS011;2330;48.158;11.816;2023-05-10T03:05:21;0.60;;;0.60;;
4634;SDS011;2330;48.158;11.816;2023-05-10T03:07:48;4.10;;;1.17;;
4634;SDS011;2330;48.158;11.816;2023-05-10T03:10:15;1.00;;;0.67;;
4634;SDS011;2330;48.158;11.816;2023-05-10T03:13:05;1.00;;;0.70;;
4634;SDS011;2330;48.158;11.816;2023-05-10T03:16:27;2.43;;;0.77;;
4634;SDS011;2330;48.158;11.816;2023-05-10T03:18:48;1.13;;;0.70;;
4634;SDS011;2330;48.158;11.816;2023-05-10T03:21:21;4.40;;;1.00;;
4634;SDS011;2330;48.158;11.816;2023-05-10T03:24:04;1.00;;;0.70;;
4634;SDS011;2330;48.158;11.816;2023-05-10T03:26:33;0.80;;;0.77;;
4634;SDS011;2330;48.158;11.816;2023-05-10T03:29:01;1.47;;;0.70;;
4634;SDS011;2330;48.158;11.816;2023-05-10T03:31:29;1.17;;;0.77;;
4634;SDS011;2330;48.158;11.816;2023-05-10T03:33:56;0.77;;;0.67;;
4634;SDS011;2330;48.158;11.816;2023-05-10T03:36:22;1.47;;;0.80;;
4634;SDS011;2330;48.158;11.816;2023-05-10T03:38:49;2.50;;;1.10;;
4634;SDS011;2330;48.158;11.816;2023-05-10T03:41:16;1.03;;;0.80;;
4634;SDS011;2330;48.158;11.816;2023-05-10T03:43:43;0.90;;;0.80;;
4634;SDS011;2330;48.158;11.816;2023-05-10T03:46:09;1.20;;;0.80;;
4634;SDS011;2330;48.158;11.816;2023-05-10T03:48:36;1.33;;;0.80;;
4634;SDS011;2330;48.158;11.816;2023-05-10T03:51:03;1.10;;;0.60;;
4634;SDS011;2330;48.158;11.816;2023-05-10T03:53:30;0.83;;;0.60;;
4634;SDS011;2330;48.158;11.816;2023-05-10T03:55:56;2.20;;;0.90;;
4634;SDS011;2330;48.158;11.816;2023-05-10T03:58:23;0.93;;;0.80;;
4634;SDS011;2330;48.158;11.816;2023-05-10T04:00:50;2.03;;;0.87;;
4634;SDS011;2330;48.158;11.816;2023-05-10T04:03:18;2.40;;;1.00;;
4634;SDS011;2330;48.158;11.816;2023-05-10T04:05:44;0.93;;;0.83;;
4634;SDS011;2330;48.158;11.816;2023-05-10T04:08:11;2.67;;;0.70;;
4634;SDS011;2330;48.158;11.816;2023-05-10T04:10:38;1.63;;;0.80;;
4634;SDS011;2330;48.158;11.816;2023-05-10T04:13:05;1.10;;;0.70;;
4634;SDS011;2330;48.158;11.816;2023-05-10T04:15:32;0.77;;;0.70;;
4634;SDS011;2330;48.158;11.816;2023-05-10T04:17:59;1.43;;;0.90;;
4634;SDS011;2330;48.158;11.816;2023-05-10T04:20:26;2.00;;;0.87;;
4634;SDS011;2330;48.158;11.816;2023-05-10T04:22:52;3.60;;;1.00;;
4634;SDS011;2330;48.158;11.816;2023-05-10T04:25:19;2.33;;;0.60;;
4634;SDS011;2330;48.158;11.816;2023-05-10T04:27:46;1.13;;;0.90;;
4634;SDS011;2330;48.158;11.816;2023-05-10T04:30:13;2.40;;;0.97;;
4634;SDS011;2330;48.158;11.816;2023-05-10T04:32:40;0.97;;;0.70;;
4634;SDS011;2330;48.158;11.816;2023-05-10T04:35:07;3.13;;;0.90;;
4634;SDS011;2330;48.158;11.816;2023-05-10T04:37:35;2.03;;;0.80;;
4634;SDS011;2330;48.158;11.816;2023-05-10T04:40:02;1.00;;;0.90;;
4634;SDS011;2330;48.158;11.816;2023-05-10T04:42:30;1.90;;;0.73;;
4634;SDS011;2330;48.158;11.816;2023-05-10T04:44:56;1.17;;;0.97;;
4634;SDS011;2330;48.158;11.816;2023-05-10T04:47:23;1.60;;;0.73;;
4634;SDS011;2330;48.158;11.816;2023-05-10T04:49:50;0.93;;;0.67;;
4634;SDS011;2330;48.158;11.816;2023-05-10T04:52:16;0.70;;;0.70;;
4634;SDS011;2330;48.158;11.816;2023-05-10T04:54:44;3.00;;;0.80;;
4634;SDS011;2330;48.158;11.816;2023-05-10T04:57:10;1.63;;;0.70;;
4634;SDS011;2330;48.158;11.816;2023-05-10T04:59:37;2.30;;;0.70;;
4634;SDS011;2330;48.158;11.816;2023-05-10T05:02:04;0.90;;;0.70;;
4634;SDS011;2330;48.158;11.816;2023-05-10T05:04:31;1.23;;;0.80;;
4634;SDS011;2330;48.158;11.816;2023-05-10T05:06:58;2.10;;;0.77;;
4634;SDS011;2330;48.158;11.816;2023-05-10T05:09:25;0.60;;;0.60;;
4634;SDS011;2330;48.158;11.816;2023-05-10T05:11:52;1.67;;;1.37;;
4634;SDS011;2330;48.158;11.816;2023-05-10T05:14:18;1.63;;;0.63;;
4634;SDS011;2330;48.158;11.816;2023-05-10T05:16:47;0.93;;;0.70;;
4634;SDS011;2330;48.158;11.816;2023-05-10T05:19:13;1.63;;;0.70;;
4634;SDS011;2330;48.158;11.816;2023-05-10T05:21:40;1.07;;;0.90;;
4634;SDS011;2330;48.158;11.816;2023-05-10T05:24:07;3.10;;;0.80;;
4634;SDS011;2330;48.158;11.816;2023-05-10T05:26:34;1.27;;;0.70;;
4634;SDS011;2330;48.158;11.816;2023-05-10T05:29:01;0.80;;;0.70;;
4634;SDS011;2330;48.158;11.816;2023-05-10T05:31:28;8.00;;;2.60;;
4634;SDS011;2330;48.158;11.816;2023-05-10T05:33:55;1.50;;;1.17;;
4634;SDS011;2330;48.158;11.816;2023-05-10T05:36:22;1.87;;;1.07;;
4634;SDS011;2330;48.158;11.816;2023-05-10T05:38:48;1.50;;;0.70;;
4634;SDS011;2330;48.158;11.816;2023-05-10T05:41:15;1.90;;;0.60;;
4634;SDS011;2330;48.158;11.816;2023-05-10T05:43:42;0.60;;;0.57;;
4634;SDS011;2330;48.158;11.816;2023-05-10T05:46:08;0.80;;;0.60;;
4634;SDS011;2330;48.158;11.816;2023-05-10T05:48:35;2.83;;;0.90;;
4634;SDS011;2330;48.158;11.816;2023-05-10T05:51:02;1.23;;;0.60;;
4634;SDS011;2330;48.158;11.816;2023-05-10T05:53:32;0.60;;;0.60;;
4634;SDS011;2330;48.158;11.816;2023-05-10T05:55:58;0.90;;;0.70;;
4634;SDS011;2330;48.158;11.816;2023-05-10T05:58:25;0.70;;;0.70;;
4634;SDS011;2330;48.158;11.816;2023-05-10T06:00:53;1.23;;;0.80;;
4634;SDS011;2330;48.158;11.816;2023-05-10T06:03:20;0.90;;;0.87;;
4634;SDS011;2330;48.158;11.816;2023-05-10T06:05:47;0.70;;;0.60;;
4634;SDS011;2330;48.158;11.816;2023-05-10T06:08:14;1.10;;;0.70;;
4634;SDS011;2330;48.158;11.816;2023-05-10T06:10:41;1.10;;;0.60;;
4634;SDS011;2330;48.158;11.816;2023-05-10T06:13:08;1.77;;;0.60;;
4634;SDS011;2330;48.158;11.816;2023-05-10T06:15:34;0.80;;;0.80;;
4634;SDS011;2330;48.158;11.816;2023-05-10T06:18:01;0.90;;;0.50;;
4634;SDS011;2330;48.158;11.816;2023-05-10T06:20:28;0.70;;;0.60;;
4634;SDS011;2330;48.158;11.816;2023-05-10T06:22:57;2.23;;;0.70;;
4634;SDS011;2330;48.158;11.816;2023-05-10T06:25:24;3.90;;;0.97;;
4634;SDS011;2330;48.158;11.816;2023-05-10T06:27:51;1.73;;;0.83;;
4634;SDS011;2330;48.158;11.816;2023-05-10T06:30:23;4.40;;;0.70;;
4634;SDS011;2330;48.158;11.816;2023-05-10T06:32:53;3.13;;;1.07;;
4634;SDS011;2330;48.158;11.816;2023-05-10T06:35:21;1.10;;;0.77;;
4634;SDS011;2330;48.158;11.816;2023-05-10T06:37:48;2.47;;;1.10;;
4634;SDS011;2330;48.158;11.816;2023-05-10T06:40:15;1.80;;;1.07;;
4634;SDS011;2330;48.158;11.816;2023-05-10T06:42:42;1.93;;;1.20;;
4634;SDS011;2330;48.158;11.816;2023-05-10T06:45:10;1.40;;;1.30;;
4634;SDS011;2330;48.158;11.816;2023-05-10T06:47:37;2.70;;;1.00;;
4634;SDS011;2330;48.158;11.816;2023-05-10T06:50:04;1.30;;;1.20;;
4634;SDS011;2330;48.158;11.816;2023-05-10T06:52:32;1.20;;;1.10;;
4634;SDS011;2330;48.158;11.816;2023-05-10T06:54:59;4.30;;;0.93;;
4634;SDS011;2330;48.158;11.816;2023-05-10T06:57:26;2.03;;;1.20;;
4634;SDS011;2330;48.158;11.816;2023-05-10T06:59:57;1.13;;;1.03;;
4634;SDS011;2330;48.158;11.816;2023-05-10T07:02:25;1.30;;;1.20;;
4634;SDS011;2330;48.158;11.816;2023-05-10T07:04:52;2.10;;;1.90;;
4634;SDS011;2330;48.158;11.816;2023-05-10T07:07:19;0.90;;;0.90;;
4634;SDS011;2330;48.158;11.816;2023-05-10T07:09:46;1.43;;;1.33;;
4634;SDS011;2330;48.158;11.816;2023-05-10T07:12:13;2.70;;;1.50;;
4634;SDS011;2330;48.158;11.816;2023-05-10T07:14:41;3.27;;;1.30;;
4634;SDS011;2330;48.158;11.816;2023-05-10T07:17:08;1.03;;;1.03;;
4634;SDS011;2330;48.158;11.816;2023-05-10T07:19:35;1.60;;;1.30;;
4634;SDS011;2330;48.158;11.816;2023-05-10T07:22:02;1.37;;;1.27;;
4634;SDS011;2330;48.158;11.816;2023-05-10T07:24:29;1.10;;;1.00;;
4634;SDS011;2330;48.158;11.816;2023-05-10T07:26:57;2.27;;;1.30;;
4634;SDS011;2330;48.158;11.816;2023-05-10T07:29:24;1.90;;;1.27;;
4634;SDS011;2330;48.158;11.816;2023-05-10T07:31:51;1.20;;;1.10;;
4634;SDS011;2330;48.158;11.816;2023-05-10T07:34:18;1.27;;;1.17;;
4634;SDS011;2330;48.158;11.816;2023-05-10T07:36:44;1.27;;;1.00;;
4634;SDS011;2330;48.158;11.816;2023-05-10T07:39:11;1.60;;;1.07;;
4634;SDS011;2330;48.158;11.816;2023-05-10T07:41:49;3.13;;;1.37;;
4634;SDS011;2330;48.158;11.816;2023-05-10T07:44:16;1.17;;;1.07;;
4634;SDS011;2330;48.158;11.816;2023-05-10T07:46:45;1.77;;;1.10;;
4634;SDS011;2330;48.158;11.816;2023-05-10T07:49:12;0.90;;;0.80;;
4634;SDS011;2330;48.158;11.816;2023-05-10T07:51:39;1.30;;;1.20;;
4634;SDS011;2330;48.158;11.816;2023-05-10T07:54:10;1.10;;;1.00;;
4634;SDS011;2330;48.158;11.816;2023-05-10T07:56:38;1.67;;;1.10;;
4634;SDS011;2330;48.158;11.816;2023-05-10T07:59:06;1.13;;;1.00;;
4634;SDS011;2330;48.158;11.816;2023-05-10T08:01:34;1.07;;;1.00;;
4634;SDS011;2330;48.158;11.816;2023-05-10T08:04:01;1.00;;;0.90;;
4634;SDS011;2330;48.158;11.816;2023-05-10T08:06:29;1.77;;;1.00;;
4634;SDS011;2330;48.158;11.816;2023-05-10T08:08:56;3.83;;;1.37;;
4634;SDS011;2330;48.158;11.816;2023-05-10T08:11:24;1.20;;;1.10;;
4634;SDS011;2330;48.158;11.816;2023-05-10T08:13:51;2.70;;;2.03;;
4634;SDS011;2330;48.158;11.816;2023-05-10T08:16:18;2.17;;;0.97;;
4634;SDS011;2330;48.158;11.816;2023-05-10T08:18:46;1.00;;;0.90;;
4634;SDS011;2330;48.158;11.816;2023-05-10T08:21:14;1.63;;;0.90;;
4634;SDS011;2330;48.158;11.816;2023-05-10T08:23:42;1.07;;;0.97;;
4634;SDS011;2330;48.158;11.816;2023-05-10T08:26:10;1.47;;;1.03;;
4634;SDS011;2330;48.158;11.816;2023-05-10T08:28:37;1.00;;;0.90;;
4634;SDS011;2330;48.158;11.816;2023-05-10T08:31:04;1.30;;;1.20;;
4634;SDS011;2330;48.158;11.816;2023-05-10T08:33:31;4.10;;;1.00;;
4634;SDS011;2330;48.158;11.816;2023-05-10T08:35:58;0.70;;;0.60;;
4634;SDS011;2330;48.158;11.816;2023-05-10T08:38:25;0.80;;;0.67;;
4634;SDS011;2330;48.158;11.816;2023-05-10T08:40:53;0.87;;;0.87;;
4634;SDS011;2330;48.158;11.816;2023-05-10T08:43:28;2.43;;;0.93;;
4634;SDS011;2330;48.158;11.816;2023-05-10T08:45:56;1.30;;;1.20;;
4634;SDS011;2330;48.158;11.816;2023-05-10T08:48:28;2.57;;;1.70;;
4634;SDS011;2330;48.158;11.816;2023-05-10T08:50:56;3.43;;;1.50;;
4634;SDS011;2330;48.158;11.816;2023-05-10T08:53:25;2.00;;;1.27;;
4634;SDS011;2330;48.158;11.816;2023-05-10T08:55:55;1.30;;;1.07;;
4634;SDS011;2330;48.158;11.816;2023-05-10T08:58:22;4.43;;;0.87;;
4634;SDS011;2330;48.158;11.816;2023-05-10T09:00:49;1.07;;;0.97;;
4634;SDS011;2330;48.158;11.816;2023-05-10T09:03:19;2.13;;;0.80;;
4634;SDS011;2330;48.158;11.816;2023-05-10T09:05:46;0.80;;;0.80;;
4634;SDS011;2330;48.158;11.816;2023-05-10T09:08:14;2.03;;;1.00;;
4634;SDS011;2330;48.158;11.816;2023-05-10T09:10:45;1.10;;;1.00;;
4634;SDS011;2330;48.158;11.816;2023-05-10T09:13:14;1.47;;;0.90;;
4634;SDS011;2330;48.158;11.816;2023-05-10T09:15:43;1.20;;;0.80;;
4634;SDS011;2330;48.158;11.816;2023-05-10T09:18:11;1.70;;;0.83;;
4634;SDS011;2330;48.158;11.816;2023-05-10T09:20:38;1.33;;;1.23;;
4634;SDS011;2330;48.158;11.816;2023-05-10T09:23:06;0.80;;;0.80;;
4634;SDS011;2330;48.158;11.816;2023-05-10T09:25:33;2.20;;;0.80;;
4634;SDS011;2330;48.158;11.816;2023-05-10T09:27:59;3.90;;;1.07;;
4634;SDS011;2330;48.158;11.816;2023-05-10T09:30:27;1.93;;;1.20;;
4634;SDS011;2330;48.158;11.816;2023-05-10T09:32:56;0.87;;;0.70;;
4634;SDS011;2330;48.158;11.816;2023-05-10T09:35:25;1.50;;;0.90;;
4634;SDS011;2330;48.158;11.816;2023-05-10T09:37:55;0.70;;;0.67;;
4634;SDS011;2330;48.158;11.816;2023-05-10T09:40:25;1.00;;;0.80;;
4634;SDS011;2330;48.158;11.816;2023-05-10T09:42:58;2.93;;;1.00;;
4634;SDS011;2330;48.158;11.816;2023-05-10T09:45:30;1.43;;;0.90;;
4634;SDS011;2330;48.158;11.816;2023-05-10T09:47:59;0.90;;;0.70;;
4634;SDS011;2330;48.158;11.816;2023-05-10T09:50:29;0.70;;;0.70;;
4634;SDS011;2330;48.158;11.816;2023-05-10T09:53:02;2.60;;;0.80;;
4634;SDS011;2330;48.158;11.816;2023-05-10T09:58:13;2.40;;;0.70;;
4634;SDS011;2330;48.158;11.816;2023-05-10T10:00:41;3.17;;;1.00;;
4634;SDS011;2330;48.158;11.816;2023-05-10T10:03:19;1.40;;;0.90;;
4634;SDS011;2330;48.158;11.816;2023-05-10T10:05:47;0.80;;;0.60;;
4634;SDS011;2330;48.158;11.816;2023-05-10T10:08:14;0.93;;;0.77;;
4634;SDS011;2330;48.158;11.816;2023-05-10T10:10:42;0.97;;;0.70;;
4634;SDS011;2330;48.158;11.816;2023-05-10T10:13:12;1.47;;;0.80;;
4634;SDS011;2330;48.158;11.816;2023-05-10T10:15:39;0.90;;;0.70;;
4634;SDS011;2330;48.158;11.816;2023-05-10T10:18:08;6.70;;;1.00;;
4634;SDS011;2330;48.158;11.816;2023-05-10T10:20:39;3.17;;;1.17;;
4634;SDS011;2330;48.158;11.816;2023-05-10T10:23:07;3.37;;;0.90;;
4634;SDS011;2330;48.158;11.816;2023-05-10T10:25:34;0.80;;;0.80;;
4634;SDS011;2330;48.158;11.816;2023-05-10T10:31:03;1.43;;;0.73;;
4634;SDS011;2330;48.158;11.816;2023-05-10T10:36:27;1.37;;;0.90;;
4634;SDS011;2330;48.158;11.816;2023-05-10T10:38:54;1.43;;;0.80;;
4634;SDS011;2330;48.158;11.816;2023-05-10T10:41:32;0.90;;;0.80;;
4634;SDS011;2330;48.158;11.816;2023-05-10T10:50:07;1.67;;;1.30;;
4634;SDS011;2330;48.158;11.816;2023-05-10T10:52:35;2.43;;;1.20;;
4634;SDS011;2330;48.158;11.816;2023-05-10T10:55:06;3.03;;;0.90;;
4634;SDS011;2330;48.158;11.816;2023-05-10T10:57:49;1.00;;;0.93;;
4634;SDS011;2330;48.158;11.816;2023-05-10T11:00:18;0.80;;;0.80;;
4634;SDS011;2330;48.158;11.816;2023-05-10T11:03:11;1.47;;;0.70;;
4634;SDS011;2330;48.158;11.816;2023-05-10T11:05:47;1.37;;;1.00;;
4634;SDS011;2330;48.158;11.816;2023-05-10T11:08:19;1.00;;;0.77;;
4634;SDS011;2330;48.158;11.816;2023-05-10T11:13:37;0.90;;;0.70;;
4634;SDS011;2330;48.158;11.816;2023-05-10T11:16:18;2.33;;;1.00;;
4634;SDS011;2330;48.158;11.816;2023-05-10T11:19:00;1.33;;;1.23;;
4634;SDS011;2330;48.158;11.816;2023-05-10T11:21:30;1.13;;;0.90;;
4634;SDS011;2330;48.158;11.816;2023-05-10T11:23:58;0.93;;;0.93;;
4634;SDS011;2330;48.158;11.816;2023-05-10T11:26:30;1.20;;;1.10;;
4634;SDS011;2330;48.158;11.816;2023-05-10T11:28:58;1.00;;;0.90;;
4634;SDS011;2330;48.158;11.816;2023-05-10T11:31:27;1.00;;;0.90;;
4634;SDS011;2330;48.158;11.816;2023-05-10T11:33:56;1.97;;;1.40;;
4634;SDS011;2330;48.158;11.816;2023-05-10T11:36:34;1.20;;;1.10;;
4634;SDS011;2330;48.158;11.816;2023-05-10T11:39:03;1.50;;;1.40;;
4634;SDS011;2330;48.158;11.816;2023-05-10T11:41:30;2.67;;;1.77;;
4634;SDS011;2330;48.158;11.816;2023-05-10T11:43:57;2.03;;;1.70;;
4634;SDS011;2330;48.158;11.816;2023-05-10T11:46:25;1.90;;;1.80;;
4634;SDS011;2330;48.158;11.816;2023-05-10T11:48:55;2.10;;;1.60;;
4634;SDS011;2330;48.158;11.816;2023-05-10T11:51:26;4.60;;;1.57;;
4634;SDS011;2330;48.158;11.816;2023-05-10T11:53:54;2.27;;;1.50;;
4634;SDS011;2330;48.158;11.816;2023-05-10T11:56:22;4.53;;;1.50;;
4634;SDS011;2330;48.158;11.816;2023-05-10T11:58:53;1.50;;;1.40;;
4634;SDS011;2330;48.158;11.816;2023-05-10T12:01:24;0.93;;;0.90;;
4634;SDS011;2330;48.158;11.816;2023-05-10T12:03:53;3.03;;;1.33;;
4634;SDS011;2330;48.158;11.816;2023-05-10T12:06:21;1.90;;;1.10;;
4634;SDS011;2330;48.158;11.816;2023-05-10T12:08:49;1.83;;;1.40;;
4634;SDS011;2330;48.158;11.816;2023-05-10T12:11:19;1.27;;;1.17;;
4634;SDS011;2330;48.158;11.816;2023-05-10T12:13:47;1.90;;;1.00;;
4634;SDS011;2330;48.158;11.816;2023-05-10T12:16:20;5.63;;;1.70;;
4634;SDS011;2330;48.158;11.816;2023-05-10T12:18:48;5.30;;;1.30;;
4634;SDS011;2330;48.158;11.816;2023-05-10T12:21:18;2.67;;;1.40;;
4634;SDS011;2330;48.158;11.816;2023-05-10T12:23:46;1.33;;;1.23;;
4634;SDS011;2330;48.158;11.816;2023-05-10T12:26:17;1.90;;;1.70;;
4634;SDS011;2330;48.158;11.816;2023-05-10T12:28:47;1.70;;;1.60;;
4634;SDS011;2330;48.158;11.816;2023-05-10T12:31:14;4.00;;;1.47;;
4634;SDS011;2330;48.158;11.816;2023-05-10T12:33:44;5.07;;;1.67;;
4634;SDS011;2330;48.158;11.816;2023-05-10T12:36:15;1.77;;;1.67;;
4634;SDS011;2330;48.158;11.816;2023-05-10T12:38:43;2.77;;;1.80;;
4634;SDS011;2330;48.158;11.816;2023-05-10T12:41:15;5.77;;;2.67;;
4634;SDS011;2330;48.158;11.816;2023-05-10T12:43:43;4.70;;;2.37;;
4634;SDS011;2330;48.158;11.816;2023-05-10T12:46:12;3.53;;;2.33;;
4634;SDS011;2330;48.158;11.816;2023-05-10T12:48:43;2.77;;;2.10;;
4634;SDS011;2330;48.158;11.816;2023-05-10T12:51:11;3.10;;;2.20;;
4634;SDS011;2330;48.158;11.816;2023-05-10T12:53:39;6.00;;;2.57;;
4634;SDS011;2330;48.158;11.816;2023-05-10T12:56:10;6.80;;;2.30;;
4634;SDS011;2330;48.158;11.816;2023-05-10T12:58:37;3.87;;;2.10;;
4634;SDS011;2330;48.158;11.816;2023-05-10T13:01:04;5.37;;;2.30;;
4634;SDS011;2330;48.158;11.816;2023-05-10T13:03:31;5.53;;;1.90;;
4634;SDS011;2330;48.158;11.816;2023-05-10T13:05:58;3.53;;;2.10;;
4634;SDS011;2330;48.158;11.816;2023-05-10T13:08:25;4.93;;;2.73;;
4634;SDS011;2330;48.158;11.816;2023-05-10T13:10:52;3.13;;;2.20;;
4634;SDS011;2330;48.158;11.816;2023-05-10T13:13:19;3.40;;;2.47;;
4634;SDS011;2330;48.158;11.816;2023-05-10T13:15:46;6.40;;;2.20;;
4634;SDS011;2330;48.158;11.816;2023-05-10T13:18:12;1.80;;;1.60;;
4634;SDS011;2330;48.158;11.816;2023-05-10T13:20:39;3.40;;;1.77;;
4634;SDS011;2330;48.158;11.816;2023-05-10T13:23:06;1.77;;;1.67;;
4634;SDS011;2330;48.158;11.816;2023-05-10T13:25:33;1.80;;;1.70;;
4634;SDS011;2330;48.158;11.816;2023-05-10T13:28:00;3.57;;;1.57;;
4634;SDS011;2330;48.158;11.816;2023-05-10T13:30:27;2.30;;;1.80;;
4634;SDS011;2330;48.158;11.816;2023-05-10T13:32:54;1.73;;;1.57;;
4634;SDS011;2330;48.158;11.816;2023-05-10T13:35:21;2.47;;;1.80;;
4634;SDS011;2330;48.158;11.816;2023-05-10T13:37:48;2.17;;;1.37;;
4634;SDS011;2330;48.158;11.816;2023-05-10T13:40:16;1.80;;;1.30;;
4634;SDS011;2330;48.158;11.816;2023-05-10T13:42:43;2.47;;;2.00;;
4634;SDS011;2330;48.158;11.816;2023-05-10T13:45:10;1.57;;;1.47;;
4634;SDS011;2330;48.158;11.816;2023-05-10T13:47:38;2.63;;;1.43;;
4634;SDS011;2330;48.158;11.816;2023-05-10T13:50:05;5.97;;;2.30;;
4634;SDS011;2330;48.158;11.816;2023-05-10T13:52:33;1.83;;;1.60;;
4634;SDS011;2330;48.158;11.816;2023-05-10T13:54:59;2.80;;;2.00;;
4634;SDS011;2330;48.158;11.816;2023-05-10T13:57:26;2.10;;;1.90;;
4634;SDS011;2330;48.158;11.816;2023-05-10T13:59:54;3.90;;;1.97;;
4634;SDS011;2330;48.158;11.816;2023-05-10T14:02:23;2.40;;;1.83;;
4634;SDS011;2330;48.158;11.816;2023-05-10T14:04:50;1.97;;;1.60;;
4634;SDS011;2330;48.158;11.816;2023-05-10T14:07:17;2.00;;;1.70;;
4634;SDS011;2330;48.158;11.816;2023-05-10T14:09:44;2.13;;;1.70;;
4634;SDS011;2330;48.158;11.816;2023-05-10T14:12:11;3.13;;;2.00;;
4634;SDS011;2330;48.158;11.816;2023-05-10T14:14:37;3.47;;;1.87;;
4634;SDS011;2330;48.158;11.816;2023-05-10T14:17:05;2.07;;;1.87;;
4634;SDS011;2330;48.158;11.816;2023-05-10T14:19:31;2.47;;;1.90;;
4634;SDS011;2330;48.158;11.816;2023-05-10T14:22:00;12.33;;;1.63;;
4634;SDS011;2330;48.158;11.816;2023-05-10T14:24:26;2.53;;;1.47;;
4634;SDS011;2330;48.158;11.816;2023-05-10T14:26:53;1.90;;;1.63;;
4634;SDS011;2330;48.158;11.816;2023-05-10T14:29:20;2.17;;;1.90;;
4634;SDS011;2330;48.158;11.816;2023-05-10T14:31:48;2.50;;;1.57;;
4634;SDS011;2330;48.158;11.816;2023-05-10T14:34:16;1.63;;;1.53;;
4634;SDS011;2330;48.158;11.816;2023-05-10T14:36:42;3.10;;;1.57;;
4634;SDS011;2330;48.158;11.816;2023-05-10T14:39:09;2.50;;;1.37;;
4634;SDS011;2330;48.158;11.816;2023-05-10T14:41:38;1.80;;;1.40;;
4634;SDS011;2330;48.158;11.816;2023-05-10T14:44:07;1.83;;;1.20;;
4634;SDS011;2330;48.158;11.816;2023-05-10T14:46:34;1.50;;;1.40;;
4634;SDS011;2330;48.158;11.816;2023-05-10T14:49:01;1.53;;;1.23;;
4634;SDS011;2330;48.158;11.816;2023-05-10T14:51:28;1.93;;;1.73;;
4634;SDS011;2330;48.158;11.816;2023-05-10T14:53:54;1.27;;;1.17;;
4634;SDS011;2330;48.158;11.816;2023-05-10T14:56:22;1.90;;;1.40;;
4634;SDS011;2330;48.158;11.816;2023-05-10T14:58:49;6.10;;;1.47;;
4634;SDS011;2330;48.158;11.816;2023-05-10T15:01:16;2.10;;;1.40;;
4634;SDS011;2330;48.158;11.816;2023-05-10T15:03:43;1.33;;;0.97;;
4634;SDS011;2330;48.158;11.816;2023-05-10T15:06:10;2.97;;;1.40;;
4634;SDS011;2330;48.158;11.816;2023-05-10T15:08:37;1.73;;;1.40;;
4634;SDS011;2330;48.158;11.816;2023-05-10T15:11:04;1.27;;;1.10;;
4634;SDS011;2330;48.158;11.816;2023-05-10T15:13:30;1.63;;;1.20;;
4634;SDS011;2330;48.158;11.816;2023-05-10T15:15:57;1.23;;;1.00;;
4634;SDS011;2330;48.158;11.816;2023-05-10T15:18:24;1.77;;;1.67;;
4634;SDS011;2330;48.158;11.816;2023-05-10T15:20:51;2.37;;;1.87;;
4634;SDS011;2330;48.158;11.816;2023-05-10T15:23:17;2.50;;;2.23;;
4634;SDS011;2330;48.158;11.816;2023-05-10T15:25:44;2.83;;;2.10;;
4634;SDS011;2330;48.158;11.816;2023-05-10T15:28:11;1.53;;;1.40;;
4634;SDS011;2330;48.158;11.816;2023-05-10T15:30:38;1.97;;;1.70;;
4634;SDS011;2330;48.158;11.816;2023-05-10T15:33:04;1.17;;;1.07;;
4634;SDS011;2330;48.158;11.816;2023-05-10T15:35:31;1.30;;;0.90;;